Pagina principale
METAR-TAF:

METAR-TAF

Aeroporti :

Aeroporto di Vladivostok

Vladivostok, Russia

latitudine: 43-07N, longitudine: 131-56E, altezza: 184 m

Osservazione

Il bollettino è stato emesso 40 minuti fa, alle 02:30 UTC
Vento 4 kt da direzioni variabili
Temperature 17°C
Umidità 11%
Pressione 1018 hPa
Visibilità 10 km o più

METAR: UHWW 220230Z VRB02MPS 9999 NSC 17/M14 Q1018 R25L/0///70 NOSIG RMK QFE762

Ora: 13:10 (03:10 UTC)

Previsione

Il bollettino è stato emesso 1 ora e 10 minuti fa, alle 02:00 UTC
Previsione valida dal 22 alle 03 UTC al 23 alle 03 UTC
Vento 6 kt da sud/sud-ovest
Visibilità 10 km o più
Nubi sparse ad un'altezza di 3000 ft
Temporaneamente
dal 22 alle 03 UTC al 22 alle 12 UTC
Vento 19 kt da sud/sud-ovest
Nuvoloso ad un'altezza di 1500 ft

TAF: UHWW 220200Z 2203/2303 20003MPS 9999 SCT030 TEMPO 2203/2212 20010MPS BKN015

Osservazioni e previsioni meteorologiche di più di 4000 aeroporti (messaggi METAR e TAF).

Le stazioni disponibili sono rappresentate dai dischi gialli e rossi sulla carta.

Puntare il mouse per vedere il nome della stazione.

Clicca sopra per visualizzare le osservazioni e previsioni meteorologiche.

Per cambiare la mappa : fare clic sui pulsanti verdi con una croce nera per ingrandire, il pulsante verde con un trattino per diminuire, o sulla freccia verde per le mappe adiacenti.


METAR-TAF: